sensor_id;sensor_type;location;lat;lon;timestamp;pressure;altitude;pressure_sealevel;temperature;humidity
71907;BME280;59781;52.090;5.030;2023-02-28T00:00:26;103153.66;;;2.71;100.00
71907;BME280;59781;52.090;5.030;2023-02-28T00:02:52;103156.44;;;3.10;99.75
71907;BME280;59781;52.090;5.030;2023-02-28T00:05:20;103160.28;;;3.03;99.72
71907;BME280;59781;52.090;5.030;2023-02-28T00:07:48;103158.16;;;2.91;100.00
71907;BME280;59781;52.090;5.030;2023-02-28T00:10:20;103157.94;;;2.75;100.00
71907;BME280;59781;52.090;5.030;2023-02-28T00:12:54;103152.81;;;2.91;100.00
71907;BME280;59781;52.090;5.030;2023-02-28T00:15:24;103144.78;;;2.93;100.00
71907;BME280;59781;52.090;5.030;2023-02-28T00:17:51;103150.34;;;2.66;100.00
71907;BME280;59781;52.090;5.030;2023-02-28T00:20:18;103157.47;;;2.66;100.00
71907;BME280;59781;52.090;5.030;2023-02-28T00:22:48;103152.16;;;2.86;100.00
71907;BME280;59781;52.090;5.030;2023-02-28T00:25:18;103157.91;;;2.97;100.00
71907;BME280;59781;52.090;5.030;2023-02-28T00:27:46;103157.81;;;2.78;100.00
71907;BME280;59781;52.090;5.030;2023-02-28T00:30:23;103169.94;;;2.85;100.00
71907;BME280;59781;52.090;5.030;2023-02-28T00:32:50;103159.56;;;3.00;100.00
71907;BME280;59781;52.090;5.030;2023-02-28T00:35:16;103155.34;;;3.14;100.00
71907;BME280;59781;52.090;5.030;2023-02-28T00:37:42;103149.13;;;2.95;100.00
71907;BME280;59781;52.090;5.030;2023-02-28T00:40:09;103164.06;;;2.77;100.00
71907;BME280;59781;52.090;5.030;2023-02-28T00:42:36;103157.22;;;2.92;100.00
71907;BME280;59781;52.090;5.030;2023-02-28T00:45:03;103148.81;;;2.81;100.00
71907;BME280;59781;52.090;5.030;2023-02-28T00:47:30;103155.69;;;2.86;100.00
71907;BME280;59781;52.090;5.030;2023-02-28T00:49:57;103153.75;;;2.90;100.00
71907;BME280;59781;52.090;5.030;2023-02-28T00:52:23;103149.91;;;3.17;100.00
71907;BME280;59781;52.090;5.030;2023-02-28T00:54:48;103158.38;;;3.27;100.00
71907;BME280;59781;52.090;5.030;2023-02-28T00:57:14;103142.78;;;3.38;99.41
71907;BME280;59781;52.090;5.030;2023-02-28T00:59:40;103150.97;;;3.13;99.98
71907;BME280;59781;52.090;5.030;2023-02-28T01:02:06;103152.38;;;3.02;100.00
71907;BME280;59781;52.090;5.030;2023-02-28T01:04:31;103153.97;;;3.06;100.00
71907;BME280;59781;52.090;5.030;2023-02-28T01:07:00;103152.03;;;3.30;100.00
71907;BME280;59781;52.090;5.030;2023-02-28T01:09:27;103145.31;;;3.41;99.58
71907;BME280;59781;52.090;5.030;2023-02-28T01:11:54;103151.94;;;3.52;97.93
71907;BME280;59781;52.090;5.030;2023-02-28T01:14:19;103152.13;;;3.08;99.90
71907;BME280;59781;52.090;5.030;2023-02-28T01:16:45;103151.25;;;3.28;98.94
71907;BME280;59781;52.090;5.030;2023-02-28T01:19:11;103149.16;;;3.55;99.62
71907;BME280;59781;52.090;5.030;2023-02-28T01:21:37;103153.13;;;3.26;98.38
71907;BME280;59781;52.090;5.030;2023-02-28T01:24:04;103148.28;;;3.34;99.10
71907;BME280;59781;52.090;5.030;2023-02-28T01:26:31;103144.66;;;3.16;99.71
71907;BME280;59781;52.090;5.030;2023-02-28T01:28:57;103144.59;;;3.38;99.71
71907;BME280;59781;52.090;5.030;2023-02-28T01:31:25;103151.19;;;3.29;99.38
71907;BME280;59781;52.090;5.030;2023-02-28T01:33:51;103145.19;;;3.44;97.85
71907;BME280;59781;52.090;5.030;2023-02-28T01:36:23;103147.75;;;3.66;97.77
71907;BME280;59781;52.090;5.030;2023-02-28T01:38:49;103140.59;;;3.28;98.95
71907;BME280;59781;52.090;5.030;2023-02-28T01:41:22;103140.03;;;3.40;99.00
71907;BME280;59781;52.090;5.030;2023-02-28T01:43:56;103140.94;;;3.59;97.49
71907;BME280;59781;52.090;5.030;2023-02-28T01:46:29;103140.03;;;3.40;99.36
71907;BME280;59781;52.090;5.030;2023-02-28T01:51:45;103130.66;;;3.31;100.00
71907;BME280;59781;52.090;5.030;2023-02-28T01:54:24;103136.63;;;3.57;100.00
71907;BME280;59781;52.090;5.030;2023-02-28T01:59:41;103131.69;;;3.87;97.72
71907;BME280;59781;52.090;5.030;2023-02-28T02:02:16;103126.47;;;3.46;98.72
71907;BME280;59781;52.090;5.030;2023-02-28T02:05:14;103134.47;;;3.46;100.00
71907;BME280;59781;52.090;5.030;2023-02-28T02:07:46;103126.06;;;3.55;99.24
71907;BME280;59781;52.090;5.030;2023-02-28T02:10:21;103119.72;;;3.58;99.48
71907;BME280;59781;52.090;5.030;2023-02-28T02:19:00;103104.78;;;3.54;100.00
71907;BME280;59781;52.090;5.030;2023-02-28T02:22:27;103113.31;;;3.81;99.10
71907;BME280;59781;52.090;5.030;2023-02-28T02:25:12;103103.34;;;3.47;99.40
71907;BME280;59781;52.090;5.030;2023-02-28T02:30:51;103096.69;;;3.76;100.00
71907;BME280;59781;52.090;5.030;2023-02-28T02:39:49;103105.44;;;3.59;100.00
71907;BME280;59781;52.090;5.030;2023-02-28T02:42:29;103110.13;;;3.91;99.86
71907;BME280;59781;52.090;5.030;2023-02-28T02:45:12;103108.72;;;3.84;99.52
71907;BME280;59781;52.090;5.030;2023-02-28T02:47:43;103117.84;;;3.60;100.00
71907;BME280;59781;52.090;5.030;2023-02-28T02:50:34;103116.31;;;3.73;100.00
71907;BME280;59781;52.090;5.030;2023-02-28T02:53:07;103114.19;;;3.81;99.60
71907;BME280;59781;52.090;5.030;2023-02-28T02:55:41;103110.00;;;3.76;99.99
71907;BME280;59781;52.090;5.030;2023-02-28T02:58:21;103104.72;;;3.93;98.94
71907;BME280;59781;52.090;5.030;2023-02-28T03:00:56;103116.28;;;3.74;99.47
71907;BME280;59781;52.090;5.030;2023-02-28T03:03:25;103117.28;;;3.91;98.74
71907;BME280;59781;52.090;5.030;2023-02-28T03:06:01;103110.94;;;3.74;99.66
71907;BME280;59781;52.090;5.030;2023-02-28T03:08:31;103111.16;;;3.70;100.00
71907;BME280;59781;52.090;5.030;2023-02-28T03:11:02;103112.88;;;3.71;100.00
71907;BME280;59781;52.090;5.030;2023-02-28T03:13:44;103123.47;;;3.72;100.00
71907;BME280;59781;52.090;5.030;2023-02-28T03:22:05;103112.78;;;3.54;100.00
71907;BME280;59781;52.090;5.030;2023-02-28T03:28:00;103125.16;;;3.94;100.00
71907;BME280;59781;52.090;5.030;2023-02-28T03:34:01;103108.06;;;3.79;100.00
71907;BME280;59781;52.090;5.030;2023-02-28T03:36:38;103113.53;;;3.76;100.00
71907;BME280;59781;52.090;5.030;2023-02-28T03:39:21;103110.81;;;3.78;100.00
71907;BME280;59781;52.090;5.030;2023-02-28T03:41:57;103123.91;;;3.82;100.00
71907;BME280;59781;52.090;5.030;2023-02-28T03:44:40;103114.41;;;3.95;100.00
71907;BME280;59781;52.090;5.030;2023-02-28T03:47:19;103108.81;;;3.62;100.00
71907;BME280;59781;52.090;5.030;2023-02-28T03:50:05;103116.72;;;3.65;100.00
71907;BME280;59781;52.090;5.030;2023-02-28T03:52:44;103123.25;;;3.58;100.00
71907;BME280;59781;52.090;5.030;2023-02-28T03:55:17;103119.53;;;3.42;100.00
71907;BME280;59781;52.090;5.030;2023-02-28T03:57:55;103116.78;;;3.64;100.00
71907;BME280;59781;52.090;5.030;2023-02-28T04:00:34;103118.22;;;3.90;100.00
71907;BME280;59781;52.090;5.030;2023-02-28T04:03:04;103121.28;;;3.62;100.00
71907;BME280;59781;52.090;5.030;2023-02-28T04:05:32;103119.44;;;4.01;100.00
71907;BME280;59781;52.090;5.030;2023-02-28T04:08:08;103112.94;;;3.69;100.00
71907;BME280;59781;52.090;5.030;2023-02-28T04:10:34;103121.63;;;3.74;100.00
71907;BME280;59781;52.090;5.030;2023-02-28T04:13:00;103121.53;;;3.76;100.00
71907;BME280;59781;52.090;5.030;2023-02-28T04:15:26;103123.06;;;3.42;100.00
71907;BME280;59781;52.090;5.030;2023-02-28T04:17:53;103120.19;;;3.47;100.00
71907;BME280;59781;52.090;5.030;2023-02-28T04:20:18;103126.09;;;3.54;100.00
71907;BME280;59781;52.090;5.030;2023-02-28T04:22:44;103124.78;;;3.64;100.00
71907;BME280;59781;52.090;5.030;2023-02-28T04:25:10;103135.50;;;3.42;100.00
71907;BME280;59781;52.090;5.030;2023-02-28T04:27:35;103129.38;;;3.98;100.00
71907;BME280;59781;52.090;5.030;2023-02-28T04:30:02;103128.78;;;3.72;100.00
71907;BME280;59781;52.090;5.030;2023-02-28T04:32:28;103120.34;;;3.63;100.00
71907;BME280;59781;52.090;5.030;2023-02-28T04:34:53;103134.25;;;3.69;100.00
71907;BME280;59781;52.090;5.030;2023-02-28T04:37:19;103133.44;;;3.49;100.00
71907;BME280;59781;52.090;5.030;2023-02-28T04:39:45;103133.72;;;3.42;100.00
71907;BME280;59781;52.090;5.030;2023-02-28T04:42:12;103131.72;;;3.48;100.00
71907;BME280;59781;52.090;5.030;2023-02-28T04:44:38;103127.84;;;3.73;100.00
71907;BME280;59781;52.090;5.030;2023-02-28T04:47:04;103130.88;;;3.66;100.00
71907;BME280;59781;52.090;5.030;2023-02-28T04:49:30;103133.41;;;3.30;100.00
71907;BME280;59781;52.090;5.030;2023-02-28T04:51:56;103138.09;;;3.43;100.00
71907;BME280;59781;52.090;5.030;2023-02-28T04:54:22;103136.34;;;3.63;100.00
71907;BME280;59781;52.090;5.030;2023-02-28T04:56:47;103134.56;;;3.43;100.00
71907;BME280;59781;52.090;5.030;2023-02-28T04:59:15;103137.78;;;3.31;100.00
71907;BME280;59781;52.090;5.030;2023-02-28T05:01:45;103141.84;;;2.99;100.00
71907;BME280;59781;52.090;5.030;2023-02-28T05:04:13;103143.94;;;2.70;100.00
71907;BME280;59781;52.090;5.030;2023-02-28T05:06:39;103135.59;;;2.79;100.00
71907;BME280;59781;52.090;5.030;2023-02-28T05:09:05;103126.13;;;2.72;94.42
71907;BME280;59781;52.090;5.030;2023-02-28T05:11:32;103135.00;;;2.51;93.17
71907;BME280;59781;52.090;5.030;2023-02-28T05:14:01;103133.75;;;2.59;93.68
71907;BME280;59781;52.090;5.030;2023-02-28T05:16:28;103126.97;;;2.73;91.34
71907;BME280;59781;52.090;5.030;2023-02-28T05:18:54;103128.06;;;2.89;87.45
71907;BME280;59781;52.090;5.030;2023-02-28T05:21:32;103131.81;;;2.63;86.52
71907;BME280;59781;52.090;5.030;2023-02-28T05:24:08;103130.16;;;2.61;85.12
71907;BME280;59781;52.090;5.030;2023-02-28T05:26:38;103136.38;;;2.39;87.78
71907;BME280;59781;52.090;5.030;2023-02-28T05:29:05;103144.94;;;2.24;88.17
71907;BME280;59781;52.090;5.030;2023-02-28T05:31:32;103145.38;;;2.35;86.95
71907;BME280;59781;52.090;5.030;2023-02-28T05:33:58;103149.69;;;2.16;84.91
71907;BME280;59781;52.090;5.030;2023-02-28T05:36:24;103143.78;;;2.31;83.54
71907;BME280;59781;52.090;5.030;2023-02-28T05:38:51;103138.81;;;2.44;83.51
71907;BME280;59781;52.090;5.030;2023-02-28T05:41:18;103142.72;;;2.35;83.30
71907;BME280;59781;52.090;5.030;2023-02-28T05:43:45;103140.91;;;2.14;83.34
71907;BME280;59781;52.090;5.030;2023-02-28T05:46:12;103133.00;;;2.34;82.99
71907;BME280;59781;52.090;5.030;2023-02-28T05:48:42;103125.75;;;2.16;84.09
71907;BME280;59781;52.090;5.030;2023-02-28T05:51:12;103143.06;;;2.04;84.78
71907;BME280;59781;52.090;5.030;2023-02-28T05:53:37;103144.56;;;2.11;85.60
71907;BME280;59781;52.090;5.030;2023-02-28T05:56:03;103147.50;;;2.04;86.53
71907;BME280;59781;52.090;5.030;2023-02-28T05:58:29;103144.28;;;2.41;85.73
71907;BME280;59781;52.090;5.030;2023-02-28T06:01:00;103142.69;;;2.37;86.50
71907;BME280;59781;52.090;5.030;2023-02-28T06:03:43;103149.44;;;2.00;90.19
71907;BME280;59781;52.090;5.030;2023-02-28T06:06:09;103148.47;;;1.79;94.21
71907;BME280;59781;52.090;5.030;2023-02-28T06:08:35;103145.50;;;1.87;96.11
71907;BME280;59781;52.090;5.030;2023-02-28T06:11:03;103153.03;;;1.99;98.25
71907;BME280;59781;52.090;5.030;2023-02-28T06:13:29;103157.19;;;1.83;100.00
71907;BME280;59781;52.090;5.030;2023-02-28T06:15:55;103158.22;;;1.30;100.00
71907;BME280;59781;52.090;5.030;2023-02-28T06:18:20;103156.44;;;1.31;100.00
71907;BME280;59781;52.090;5.030;2023-02-28T06:20:53;103159.28;;;1.00;100.00
71907;BME280;59781;52.090;5.030;2023-02-28T06:23:20;103162.03;;;0.97;100.00
71907;BME280;59781;52.090;5.030;2023-02-28T06:25:46;103163.97;;;1.18;100.00
71907;BME280;59781;52.090;5.030;2023-02-28T06:28:13;103170.28;;;0.89;100.00
71907;BME280;59781;52.090;5.030;2023-02-28T06:30:38;103172.19;;;0.84;100.00
71907;BME280;59781;52.090;5.030;2023-02-28T06:33:04;103174.47;;;1.21;100.00
71907;BME280;59781;52.090;5.030;2023-02-28T06:35:30;103185.84;;;0.98;100.00
71907;BME280;59781;52.090;5.030;2023-02-28T06:37:57;103178.06;;;1.20;100.00
71907;BME280;59781;52.090;5.030;2023-02-28T06:40:23;103177.00;;;0.99;100.00
71907;BME280;59781;52.090;5.030;2023-02-28T06:42:49;103185.56;;;0.81;100.00
71907;BME280;59781;52.090;5.030;2023-02-28T06:45:14;103196.47;;;0.98;100.00
71907;BME280;59781;52.090;5.030;2023-02-28T06:47:41;103186.78;;;0.71;100.00
71907;BME280;59781;52.090;5.030;2023-02-28T06:50:10;103176.03;;;1.02;100.00
71907;BME280;59781;52.090;5.030;2023-02-28T06:52:38;103191.28;;;0.95;100.00
71907;BME280;59781;52.090;5.030;2023-02-28T06:55:07;103195.66;;;0.96;100.00
71907;BME280;59781;52.090;5.030;2023-02-28T06:57:35;103199.19;;;0.97;100.00
71907;BME280;59781;52.090;5.030;2023-02-28T07:00:08;103204.53;;;0.95;100.00
71907;BME280;59781;52.090;5.030;2023-02-28T07:02:38;103194.34;;;1.09;100.00
71907;BME280;59781;52.090;5.030;2023-02-28T07:05:05;103196.31;;;1.29;100.00
71907;BME280;59781;52.090;5.030;2023-02-28T07:07:31;103207.81;;;1.03;100.00
71907;BME280;59781;52.090;5.030;2023-02-28T07:09:57;103200.22;;;1.19;100.00
71907;BME280;59781;52.090;5.030;2023-02-28T07:12:23;103200.75;;;1.29;100.00
71907;BME280;59781;52.090;5.030;2023-02-28T07:14:49;103195.66;;;1.23;100.00
71907;BME280;59781;52.090;5.030;2023-02-28T07:17:14;103200.97;;;1.23;100.00
71907;BME280;59781;52.090;5.030;2023-02-28T07:19:41;103202.63;;;1.25;100.00
71907;BME280;59781;52.090;5.030;2023-02-28T07:22:07;103198.69;;;1.37;100.00
71907;BME280;59781;52.090;5.030;2023-02-28T07:24:33;103198.84;;;1.32;100.00
71907;BME280;59781;52.090;5.030;2023-02-28T07:26:59;103203.03;;;1.39;100.00
71907;BME280;59781;52.090;5.030;2023-02-28T07:29:26;103205.31;;;1.50;100.00
71907;BME280;59781;52.090;5.030;2023-02-28T07:31:52;103205.25;;;1.52;100.00
71907;BME280;59781;52.090;5.030;2023-02-28T07:34:19;103203.47;;;1.52;100.00
71907;BME280;59781;52.090;5.030;2023-02-28T07:36:46;103198.94;;;1.54;100.00
71907;BME280;59781;52.090;5.030;2023-02-28T07:39:11;103192.78;;;1.54;100.00
71907;BME280;59781;52.090;5.030;2023-02-28T07:41:37;103190.00;;;1.57;100.00
71907;BME280;59781;52.090;5.030;2023-02-28T07:44:11;103201.16;;;1.66;100.00
71907;BME280;59781;52.090;5.030;2023-02-28T07:46:38;103199.66;;;1.59;100.00
71907;BME280;59781;52.090;5.030;2023-02-28T07:49:04;103205.72;;;1.63;100.00
71907;BME280;59781;52.090;5.030;2023-02-28T07:51:30;103195.69;;;1.71;100.00
71907;BME280;59781;52.090;5.030;2023-02-28T07:53:57;103200.72;;;1.79;100.00
71907;BME280;59781;52.090;5.030;2023-02-28T07:56:23;103206.13;;;1.76;100.00
71907;BME280;59781;52.090;5.030;2023-02-28T07:58:49;103197.44;;;1.72;100.00
71907;BME280;59781;52.090;5.030;2023-02-28T08:01:16;103203.22;;;1.83;100.00
71907;BME280;59781;52.090;5.030;2023-02-28T08:03:42;103207.50;;;1.87;100.00
71907;BME280;59781;52.090;5.030;2023-02-28T08:06:16;103204.38;;;1.99;100.00
71907;BME280;59781;52.090;5.030;2023-02-28T08:08:47;103209.56;;;2.03;100.00
71907;BME280;59781;52.090;5.030;2023-02-28T08:11:14;103208.63;;;2.04;100.00
71907;BME280;59781;52.090;5.030;2023-02-28T08:13:41;103211.16;;;2.08;100.00
71907;BME280;59781;52.090;5.030;2023-02-28T08:16:11;103214.06;;;2.24;100.00
71907;BME280;59781;52.090;5.030;2023-02-28T08:18:50;103219.03;;;2.55;100.00
71907;BME280;59781;52.090;5.030;2023-02-28T08:21:17;103204.88;;;2.33;100.00
71907;BME280;59781;52.090;5.030;2023-02-28T08:23:43;103215.22;;;2.40;100.00
71907;BME280;59781;52.090;5.030;2023-02-28T08:26:09;103214.66;;;2.54;100.00
71907;BME280;59781;52.090;5.030;2023-02-28T08:28:38;103214.34;;;2.62;100.00
71907;BME280;59781;52.090;5.030;2023-02-28T08:31:11;103209.16;;;2.80;100.00
71907;BME280;59781;52.090;5.030;2023-02-28T08:33:39;103224.06;;;2.63;100.00
71907;BME280;59781;52.090;5.030;2023-02-28T08:36:07;103215.97;;;2.66;100.00
71907;BME280;59781;52.090;5.030;2023-02-28T08:38:35;103211.63;;;2.63;100.00
71907;BME280;59781;52.090;5.030;2023-02-28T08:41:05;103211.44;;;2.90;100.00
71907;BME280;59781;52.090;5.030;2023-02-28T08:43:35;103207.84;;;2.91;100.00
71907;BME280;59781;52.090;5.030;2023-02-28T08:46:00;103207.59;;;2.97;100.00
71907;BME280;59781;52.090;5.030;2023-02-28T08:48:29;103204.13;;;2.95;100.00
71907;BME280;59781;52.090;5.030;2023-02-28T08:53:28;103214.00;;;2.71;100.00
71907;BME280;59781;52.090;5.030;2023-02-28T08:55:59;103206.75;;;2.52;100.00
71907;BME280;59781;52.090;5.030;2023-02-28T08:58:27;103212.56;;;2.62;100.00
71907;BME280;59781;52.090;5.030;2023-02-28T09:00:53;103203.47;;;2.68;100.00
71907;BME280;59781;52.090;5.030;2023-02-28T09:03:20;103203.97;;;2.77;100.00
71907;BME280;59781;52.090;5.030;2023-02-28T09:05:58;103198.25;;;2.43;100.00
71907;BME280;59781;52.090;5.030;2023-02-28T09:08:28;103195.44;;;2.69;100.00
71907;BME280;59781;52.090;5.030;2023-02-28T09:10:56;103194.00;;;2.61;100.00
71907;BME280;59781;52.090;5.030;2023-02-28T09:13:25;103182.81;;;2.95;100.00
71907;BME280;59781;52.090;5.030;2023-02-28T09:15:52;103189.16;;;2.92;100.00
71907;BME280;59781;52.090;5.030;2023-02-28T09:18:18;103204.00;;;2.54;100.00
71907;BME280;59781;52.090;5.030;2023-02-28T09:20:45;103206.25;;;2.86;100.00
71907;BME280;59781;52.090;5.030;2023-02-28T09:23:12;103196.00;;;2.77;100.00
71907;BME280;59781;52.090;5.030;2023-02-28T09:25:46;103193.91;;;2.84;98.64
71907;BME280;59781;52.090;5.030;2023-02-28T09:28:17;103203.34;;;2.71;99.94
71907;BME280;59781;52.090;5.030;2023-02-28T09:30:45;103189.00;;;3.17;97.99
71907;BME280;59781;52.090;5.030;2023-02-28T09:33:13;103193.38;;;2.98;94.27
71907;BME280;59781;52.090;5.030;2023-02-28T09:35:41;103194.38;;;2.95;95.19
71907;BME280;59781;52.090;5.030;2023-02-28T09:38:09;103202.34;;;2.95;95.20
71907;BME280;59781;52.090;5.030;2023-02-28T09:40:46;103202.16;;;3.00;89.76
71907;BME280;59781;52.090;5.030;2023-02-28T09:43:22;103185.34;;;2.77;86.16
71907;BME280;59781;52.090;5.030;2023-02-28T09:46:00;103207.59;;;2.75;87.29
71907;BME280;59781;52.090;5.030;2023-02-28T09:48:49;103193.78;;;3.09;81.75
71907;BME280;59781;52.090;5.030;2023-02-28T09:54:30;103195.91;;;3.21;79.93
71907;BME280;59781;52.090;5.030;2023-02-28T10:02:21;103197.94;;;3.36;75.74
71907;BME280;59781;52.090;5.030;2023-02-28T10:05:12;103194.59;;;3.91;74.37
71907;BME280;59781;52.090;5.030;2023-02-28T10:11:03;103193.88;;;4.06;74.95
71907;BME280;59781;52.090;5.030;2023-02-28T10:16:52;103186.94;;;4.02;62.71
71907;BME280;59781;52.090;5.030;2023-02-28T10:19:33;103187.72;;;4.60;61.30
71907;BME280;59781;52.090;5.030;2023-02-28T10:22:25;103189.00;;;4.16;61.20
71907;BME280;59781;52.090;5.030;2023-02-28T10:24:55;103177.19;;;4.94;58.95
71907;BME280;59781;52.090;5.030;2023-02-28T10:27:30;103173.78;;;4.73;53.55
71907;BME280;59781;52.090;5.030;2023-02-28T10:29:59;103179.91;;;4.75;52.02
71907;BME280;59781;52.090;5.030;2023-02-28T10:32:34;103175.22;;;4.61;51.71
71907;BME280;59781;52.090;5.030;2023-02-28T10:35:20;103165.41;;;5.15;50.10
71907;BME280;59781;52.090;5.030;2023-02-28T10:37:57;103167.22;;;4.61;51.27
71907;BME280;59781;52.090;5.030;2023-02-28T10:40:28;103175.13;;;5.16;51.91
71907;BME280;59781;52.090;5.030;2023-02-28T10:45:34;103172.25;;;5.03;48.70
71907;BME280;59781;52.090;5.030;2023-02-28T10:48:06;103166.84;;;5.55;47.07
71907;BME280;59781;52.090;5.030;2023-02-28T10:51:10;103164.94;;;5.24;50.39
71907;BME280;59781;52.090;5.030;2023-02-28T10:53:54;103167.72;;;5.38;48.34
71907;BME280;59781;52.090;5.030;2023-02-28T10:56:23;103162.84;;;5.64;49.46
71907;BME280;59781;52.090;5.030;2023-02-28T11:01:45;103149.69;;;6.71;47.09
71907;BME280;59781;52.090;5.030;2023-02-28T11:04:18;103157.13;;;6.66;47.36
71907;BME280;59781;52.090;5.030;2023-02-28T11:06:48;103155.44;;;6.18;45.03
71907;BME280;59781;52.090;5.030;2023-02-28T11:09:38;103138.03;;;7.61;43.80
71907;BME280;59781;52.090;5.030;2023-02-28T11:12:18;103134.69;;;8.68;39.78
71907;BME280;59781;52.090;5.030;2023-02-28T11:15:01;103128.72;;;7.66;42.98
71907;BME280;59781;52.090;5.030;2023-02-28T11:17:54;103139.97;;;6.84;42.72
71907;BME280;59781;52.090;5.030;2023-02-28T11:20:27;103122.31;;;8.24;41.72
71907;BME280;59781;52.090;5.030;2023-02-28T11:22:57;103131.22;;;9.18;41.33
71907;BME280;59781;52.090;5.030;2023-02-28T11:25:35;103117.34;;;8.99;37.17
71907;BME280;59781;52.090;5.030;2023-02-28T11:28:06;103121.25;;;10.08;38.49
71907;BME280;59781;52.090;5.030;2023-02-28T11:31:01;103111.00;;;9.51;38.71
71907;BME280;59781;52.090;5.030;2023-02-28T11:36:26;103105.44;;;9.29;36.47
71907;BME280;59781;52.090;5.030;2023-02-28T11:38:56;103108.88;;;9.56;35.59
71907;BME280;59781;52.090;5.030;2023-02-28T11:46:50;103102.38;;;9.84;35.73
71907;BME280;59781;52.090;5.030;2023-02-28T11:49:37;103098.28;;;9.78;36.62
71907;BME280;59781;52.090;5.030;2023-02-28T11:52:52;103095.22;;;9.96;36.89
71907;BME280;59781;52.090;5.030;2023-02-28T11:55:42;103097.56;;;9.13;36.31
71907;BME280;59781;52.090;5.030;2023-02-28T12:04:34;103085.25;;;10.22;34.84
71907;BME280;59781;52.090;5.030;2023-02-28T12:07:32;103087.66;;;9.13;35.78
71907;BME280;59781;52.090;5.030;2023-02-28T12:10:35;103086.41;;;9.44;36.15
71907;BME280;59781;52.090;5.030;2023-02-28T12:13:37;103077.47;;;9.93;36.35
71907;BME280;59781;52.090;5.030;2023-02-28T12:16:49;103080.84;;;8.70;36.36
71907;BME280;59781;52.090;5.030;2023-02-28T12:28:02;103081.81;;;8.69;36.10
71907;BME280;59781;52.090;5.030;2023-02-28T12:30:32;103074.84;;;9.42;35.11
71907;BME280;59781;52.090;5.030;2023-02-28T12:33:12;103073.03;;;9.30;35.30
71907;BME280;59781;52.090;5.030;2023-02-28T12:35:56;103075.41;;;9.47;34.62
71907;BME280;59781;52.090;5.030;2023-02-28T12:41:16;103068.31;;;9.46;35.61
71907;BME280;59781;52.090;5.030;2023-02-28T12:43:52;103059.97;;;8.60;34.77
71907;BME280;59781;52.090;5.030;2023-02-28T12:46:34;103050.53;;;9.57;34.09
71907;BME280;59781;52.090;5.030;2023-02-28T12:49:28;103058.72;;;9.42;33.82
71907;BME280;59781;52.090;5.030;2023-02-28T12:52:05;103047.50;;;10.70;32.63
71907;BME280;59781;52.090;5.030;2023-02-28T13:00:14;103057.75;;;9.56;33.31
71907;BME280;59781;52.090;5.030;2023-02-28T13:10:53;103041.75;;;9.04;34.19
71907;BME280;59781;52.090;5.030;2023-02-28T13:13:29;103036.03;;;9.34;33.70
71907;BME280;59781;52.090;5.030;2023-02-28T13:21:04;103036.03;;;8.83;33.51
71907;BME280;59781;52.090;5.030;2023-02-28T13:26:23;103031.78;;;9.68;33.46
71907;BME280;59781;52.090;5.030;2023-02-28T13:39:58;103024.53;;;8.68;36.52
71907;BME280;59781;52.090;5.030;2023-02-28T13:42:51;103013.09;;;9.90;34.50
71907;BME280;59781;52.090;5.030;2023-02-28T13:50:34;103018.56;;;8.38;34.16
71907;BME280;59781;52.090;5.030;2023-02-28T14:07:23;102997.22;;;7.68;35.85
71907;BME280;59781;52.090;5.030;2023-02-28T14:09:58;103003.84;;;7.62;35.88
71907;BME280;59781;52.090;5.030;2023-02-28T14:12:51;103000.63;;;7.29;36.31
71907;BME280;59781;52.090;5.030;2023-02-28T14:16:05;102991.09;;;7.93;36.33
71907;BME280;59781;52.090;5.030;2023-02-28T14:18:35;102994.00;;;8.17;35.75
71907;BME280;59781;52.090;5.030;2023-02-28T14:27:08;102984.81;;;7.53;35.66
71907;BME280;59781;52.090;5.030;2023-02-28T14:32:45;102990.84;;;7.83;34.88
71907;BME280;59781;52.090;5.030;2023-02-28T14:37:53;102992.81;;;7.94;35.53
71907;BME280;59781;52.090;5.030;2023-02-28T14:40:29;102985.91;;;7.77;35.58
71907;BME280;59781;52.090;5.030;2023-02-28T14:43:06;102991.66;;;7.71;36.30
71907;BME280;59781;52.090;5.030;2023-02-28T14:45:56;102994.47;;;7.55;36.99
71907;BME280;59781;52.090;5.030;2023-02-28T14:48:26;102991.75;;;7.28;37.00
71907;BME280;59781;52.090;5.030;2023-02-28T14:51:00;102993.91;;;7.07;36.73
71907;BME280;59781;52.090;5.030;2023-02-28T14:53:29;102988.84;;;7.17;36.33
71907;BME280;59781;52.090;5.030;2023-02-28T14:56:01;102985.22;;;7.04;36.97
71907;BME280;59781;52.090;5.030;2023-02-28T14:58:32;102978.34;;;7.69;36.87
71907;BME280;59781;52.090;5.030;2023-02-28T15:01:02;102978.03;;;8.01;36.45
71907;BME280;59781;52.090;5.030;2023-02-28T15:03:35;102981.03;;;7.69;35.71
71907;BME280;59781;52.090;5.030;2023-02-28T15:06:15;102980.72;;;8.01;35.85
71907;BME280;59781;52.090;5.030;2023-02-28T15:08:43;102984.81;;;7.53;36.40
71907;BME280;59781;52.090;5.030;2023-02-28T15:11:16;102988.13;;;7.56;36.93
71907;BME280;59781;52.090;5.030;2023-02-28T15:13:54;102987.00;;;7.60;37.28
71907;BME280;59781;52.090;5.030;2023-02-28T15:16:31;102991.81;;;7.27;36.76
71907;BME280;59781;52.090;5.030;2023-02-28T15:19:16;102991.59;;;7.58;37.28
71907;BME280;59781;52.090;5.030;2023-02-28T15:21:52;102986.44;;;7.27;37.57
71907;BME280;59781;52.090;5.030;2023-02-28T15:24:44;102991.97;;;7.52;37.96
71907;BME280;59781;52.090;5.030;2023-02-28T15:27:20;102987.25;;;7.00;37.83
71907;BME280;59781;52.090;5.030;2023-02-28T15:29:55;102993.72;;;7.25;38.72
71907;BME280;59781;52.090;5.030;2023-02-28T15:32:30;102989.00;;;7.57;38.16
71907;BME280;59781;52.090;5.030;2023-02-28T15:35:19;102996.91;;;7.03;38.74
71907;BME280;59781;52.090;5.030;2023-02-28T15:40:38;102986.28;;;7.30;38.17
71907;BME280;59781;52.090;5.030;2023-02-28T15:46:06;102990.31;;;7.08;39.05
71907;BME280;59781;52.090;5.030;2023-02-28T15:48:56;102994.50;;;7.27;37.85
71907;BME280;59781;52.090;5.030;2023-02-28T15:54:07;102982.13;;;7.53;37.99
71907;BME280;59781;52.090;5.030;2023-02-28T15:56:43;102982.94;;;7.12;38.55